sensor_id;sensor_type;location;lat;lon;timestamp;P1;durP1;ratioP1;P2;durP2;ratioP2
21148;SDS011;10732;51.472;6.466;2022-09-12T00:01:29;42.97;;;28.77;;
21148;SDS011;10732;51.472;6.466;2022-09-12T00:03:54;43.65;;;29.80;;
21148;SDS011;10732;51.472;6.466;2022-09-12T00:06:32;44.95;;;30.20;;
21148;SDS011;10732;51.472;6.466;2022-09-12T00:09:01;48.08;;;31.75;;
21148;SDS011;10732;51.472;6.466;2022-09-12T00:11:37;42.60;;;28.65;;
21148;SDS011;10732;51.472;6.466;2022-09-12T00:14:05;43.28;;;29.45;;
21148;SDS011;10732;51.472;6.466;2022-09-12T00:16:33;46.75;;;29.90;;
21148;SDS011;10732;51.472;6.466;2022-09-12T00:19:00;45.90;;;29.80;;
21148;SDS011;10732;51.472;6.466;2022-09-12T00:21:27;44.35;;;28.75;;
21148;SDS011;10732;51.472;6.466;2022-09-12T00:23:53;44.20;;;29.65;;
21148;SDS011;10732;51.472;6.466;2022-09-12T00:26:19;48.72;;;29.50;;
21148;SDS011;10732;51.472;6.466;2022-09-12T00:28:46;43.42;;;29.95;;
21148;SDS011;10732;51.472;6.466;2022-09-12T00:31:13;42.47;;;28.42;;
21148;SDS011;10732;51.472;6.466;2022-09-12T00:33:40;41.97;;;28.17;;
21148;SDS011;10732;51.472;6.466;2022-09-12T00:36:07;38.58;;;27.98;;
21148;SDS011;10732;51.472;6.466;2022-09-12T00:38:35;39.67;;;27.02;;
21148;SDS011;10732;51.472;6.466;2022-09-12T00:41:03;37.85;;;25.60;;
21148;SDS011;10732;51.472;6.466;2022-09-12T00:46:01;35.15;;;24.45;;
21148;SDS011;10732;51.472;6.466;2022-09-12T00:48:58;36.75;;;25.23;;
21148;SDS011;10732;51.472;6.466;2022-09-12T00:51:29;35.47;;;25.13;;
21148;SDS011;10732;51.472;6.466;2022-09-12T00:53:57;40.75;;;26.38;;
21148;SDS011;10732;51.472;6.466;2022-09-12T00:56:26;38.65;;;25.98;;
21148;SDS011;10732;51.472;6.466;2022-09-12T00:58:54;40.58;;;25.75;;
21148;SDS011;10732;51.472;6.466;2022-09-12T01:01:25;38.97;;;26.08;;
21148;SDS011;10732;51.472;6.466;2022-09-12T01:03:51;34.67;;;25.13;;
21148;SDS011;10732;51.472;6.466;2022-09-12T01:06:19;37.88;;;24.77;;
21148;SDS011;10732;51.472;6.466;2022-09-12T01:08:48;35.70;;;25.80;;
21148;SDS011;10732;51.472;6.466;2022-09-12T01:11:16;37.33;;;25.50;;
21148;SDS011;10732;51.472;6.466;2022-09-12T01:13:44;39.05;;;26.13;;
21148;SDS011;10732;51.472;6.466;2022-09-12T01:16:09;41.10;;;26.83;;
21148;SDS011;10732;51.472;6.466;2022-09-12T01:21:10;39.45;;;26.13;;
21148;SDS011;10732;51.472;6.466;2022-09-12T01:29:18;34.15;;;22.85;;
21148;SDS011;10732;51.472;6.466;2022-09-12T01:32:05;33.17;;;23.20;;
21148;SDS011;10732;51.472;6.466;2022-09-12T01:40:49;35.88;;;23.80;;
21148;SDS011;10732;51.472;6.466;2022-09-12T01:43:39;34.13;;;23.83;;
21148;SDS011;10732;51.472;6.466;2022-09-12T01:46:16;32.75;;;23.40;;
21148;SDS011;10732;51.472;6.466;2022-09-12T01:48:54;36.15;;;23.05;;
21148;SDS011;10732;51.472;6.466;2022-09-12T01:51:26;36.63;;;23.15;;
21148;SDS011;10732;51.472;6.466;2022-09-12T01:54:25;35.15;;;23.65;;
21148;SDS011;10732;51.472;6.466;2022-09-12T01:57:00;34.30;;;22.25;;
21148;SDS011;10732;51.472;6.466;2022-09-12T01:59:33;38.53;;;24.30;;
21148;SDS011;10732;51.472;6.466;2022-09-12T02:02:06;34.67;;;23.10;;
21148;SDS011;10732;51.472;6.466;2022-09-12T02:04:35;34.85;;;22.88;;
21148;SDS011;10732;51.472;6.466;2022-09-12T02:07:09;34.63;;;21.92;;
21148;SDS011;10732;51.472;6.466;2022-09-12T02:09:49;36.45;;;23.42;;
21148;SDS011;10732;51.472;6.466;2022-09-12T02:12:19;35.85;;;22.75;;
21148;SDS011;10732;51.472;6.466;2022-09-12T02:14:52;39.90;;;23.40;;
21148;SDS011;10732;51.472;6.466;2022-09-12T02:17:25;31.38;;;21.08;;
21148;SDS011;10732;51.472;6.466;2022-09-12T02:19:54;33.05;;;22.75;;
21148;SDS011;10732;51.472;6.466;2022-09-12T02:22:24;39.47;;;23.75;;
21148;SDS011;10732;51.472;6.466;2022-09-12T02:24:54;34.85;;;22.95;;
21148;SDS011;10732;51.472;6.466;2022-09-12T02:27:29;36.88;;;24.05;;
21148;SDS011;10732;51.472;6.466;2022-09-12T02:30:02;38.35;;;23.83;;
21148;SDS011;10732;51.472;6.466;2022-09-12T02:33:16;40.63;;;23.83;;
21148;SDS011;10732;51.472;6.466;2022-09-12T02:35:32;35.47;;;23.35;;
21148;SDS011;10732;51.472;6.466;2022-09-12T02:38:07;39.55;;;23.98;;
21148;SDS011;10732;51.472;6.466;2022-09-12T02:40:37;37.58;;;23.85;;
21148;SDS011;10732;51.472;6.466;2022-09-12T02:43:03;36.42;;;22.45;;
21148;SDS011;10732;51.472;6.466;2022-09-12T02:45:30;41.45;;;24.52;;
21148;SDS011;10732;51.472;6.466;2022-09-12T02:48:02;40.15;;;23.95;;
21148;SDS011;10732;51.472;6.466;2022-09-12T02:50:34;41.00;;;24.20;;
21148;SDS011;10732;51.472;6.466;2022-09-12T02:53:00;40.35;;;24.27;;
21148;SDS011;10732;51.472;6.466;2022-09-12T02:55:29;40.80;;;24.02;;
21148;SDS011;10732;51.472;6.466;2022-09-12T02:57:57;38.97;;;24.73;;
21148;SDS011;10732;51.472;6.466;2022-09-12T03:00:24;38.63;;;24.38;;
21148;SDS011;10732;51.472;6.466;2022-09-12T03:02:54;42.17;;;25.60;;
21148;SDS011;10732;51.472;6.466;2022-09-12T03:05:33;42.13;;;24.08;;
21148;SDS011;10732;51.472;6.466;2022-09-12T03:13:59;39.22;;;23.13;;
21148;SDS011;10732;51.472;6.466;2022-09-12T03:16:43;37.70;;;22.65;;
21148;SDS011;10732;51.472;6.466;2022-09-12T03:19:32;43.38;;;23.90;;
21148;SDS011;10732;51.472;6.466;2022-09-12T03:27:35;38.83;;;23.05;;
21148;SDS011;10732;51.472;6.466;2022-09-12T03:30:08;41.80;;;24.23;;
21148;SDS011;10732;51.472;6.466;2022-09-12T03:32:47;38.50;;;24.10;;
21148;SDS011;10732;51.472;6.466;2022-09-12T03:35:18;38.78;;;23.55;;
21148;SDS011;10732;51.472;6.466;2022-09-12T03:37:46;40.47;;;23.58;;
21148;SDS011;10732;51.472;6.466;2022-09-12T03:40:13;44.17;;;25.33;;
21148;SDS011;10732;51.472;6.466;2022-09-12T03:42:39;46.35;;;25.25;;
21148;SDS011;10732;51.472;6.466;2022-09-12T03:45:06;41.78;;;24.25;;
21148;SDS011;10732;51.472;6.466;2022-09-12T03:47:32;42.53;;;24.42;;
21148;SDS011;10732;51.472;6.466;2022-09-12T03:49:58;38.13;;;24.00;;
21148;SDS011;10732;51.472;6.466;2022-09-12T03:52:23;41.25;;;23.40;;
21148;SDS011;10732;51.472;6.466;2022-09-12T03:54:49;47.50;;;25.48;;
21148;SDS011;10732;51.472;6.466;2022-09-12T03:57:15;38.75;;;23.13;;
21148;SDS011;10732;51.472;6.466;2022-09-12T03:59:41;39.17;;;23.10;;
21148;SDS011;10732;51.472;6.466;2022-09-12T04:02:06;42.13;;;24.95;;
21148;SDS011;10732;51.472;6.466;2022-09-12T04:04:33;42.08;;;24.30;;
21148;SDS011;10732;51.472;6.466;2022-09-12T04:06:59;42.33;;;24.27;;
21148;SDS011;10732;51.472;6.466;2022-09-12T04:09:24;41.33;;;24.10;;
21148;SDS011;10732;51.472;6.466;2022-09-12T04:11:50;44.75;;;26.15;;
21148;SDS011;10732;51.472;6.466;2022-09-12T04:14:15;44.63;;;25.42;;
21148;SDS011;10732;51.472;6.466;2022-09-12T04:16:41;46.17;;;25.73;;
21148;SDS011;10732;51.472;6.466;2022-09-12T04:19:07;47.55;;;26.33;;
21148;SDS011;10732;51.472;6.466;2022-09-12T04:21:35;46.35;;;25.80;;
21148;SDS011;10732;51.472;6.466;2022-09-12T04:24:01;47.95;;;27.35;;
21148;SDS011;10732;51.472;6.466;2022-09-12T04:26:26;54.97;;;30.10;;
21148;SDS011;10732;51.472;6.466;2022-09-12T04:28:53;60.88;;;30.50;;
21148;SDS011;10732;51.472;6.466;2022-09-12T04:31:21;67.97;;;33.83;;
21148;SDS011;10732;51.472;6.466;2022-09-12T04:33:51;62.63;;;31.92;;
21148;SDS011;10732;51.472;6.466;2022-09-12T04:36:21;63.90;;;31.13;;
21148;SDS011;10732;51.472;6.466;2022-09-12T04:38:47;67.50;;;32.65;;
21148;SDS011;10732;51.472;6.466;2022-09-12T04:41:18;76.47;;;33.88;;
21148;SDS011;10732;51.472;6.466;2022-09-12T04:43:53;67.15;;;31.90;;
21148;SDS011;10732;51.472;6.466;2022-09-12T04:46:22;80.47;;;37.00;;
21148;SDS011;10732;51.472;6.466;2022-09-12T04:48:48;96.28;;;41.38;;
21148;SDS011;10732;51.472;6.466;2022-09-12T04:51:15;82.78;;;38.22;;
21148;SDS011;10732;51.472;6.466;2022-09-12T04:53:46;91.75;;;39.78;;
21148;SDS011;10732;51.472;6.466;2022-09-12T04:56:17;100.35;;;42.83;;
21148;SDS011;10732;51.472;6.466;2022-09-12T04:58:43;110.03;;;46.33;;
21148;SDS011;10732;51.472;6.466;2022-09-12T05:01:10;118.75;;;48.33;;
21148;SDS011;10732;51.472;6.466;2022-09-12T05:03:41;133.68;;;50.03;;
21148;SDS011;10732;51.472;6.466;2022-09-12T05:06:09;132.55;;;50.38;;
21148;SDS011;10732;51.472;6.466;2022-09-12T05:08:36;124.82;;;50.58;;
21148;SDS011;10732;51.472;6.466;2022-09-12T05:11:22;141.15;;;54.97;;
21148;SDS011;10732;51.472;6.466;2022-09-12T05:13:49;129.98;;;54.40;;
21148;SDS011;10732;51.472;6.466;2022-09-12T05:16:16;125.47;;;54.83;;
21148;SDS011;10732;51.472;6.466;2022-09-12T05:18:42;126.80;;;53.70;;
21148;SDS011;10732;51.472;6.466;2022-09-12T05:21:10;117.28;;;52.67;;
21148;SDS011;10732;51.472;6.466;2022-09-12T05:23:37;107.97;;;51.97;;
21148;SDS011;10732;51.472;6.466;2022-09-12T05:26:03;95.50;;;48.10;;
21148;SDS011;10732;51.472;6.466;2022-09-12T05:28:31;98.35;;;46.83;;
21148;SDS011;10732;51.472;6.466;2022-09-12T05:31:06;81.10;;;43.95;;
21148;SDS011;10732;51.472;6.466;2022-09-12T05:33:35;74.18;;;41.70;;
21148;SDS011;10732;51.472;6.466;2022-09-12T05:36:02;67.95;;;38.50;;
21148;SDS011;10732;51.472;6.466;2022-09-12T05:38:28;60.80;;;35.95;;
21148;SDS011;10732;51.472;6.466;2022-09-12T05:41:04;51.03;;;32.10;;
21148;SDS011;10732;51.472;6.466;2022-09-12T05:43:32;48.03;;;29.38;;
21148;SDS011;10732;51.472;6.466;2022-09-12T05:46:01;42.88;;;27.25;;
21148;SDS011;10732;51.472;6.466;2022-09-12T05:48:28;42.45;;;27.38;;
21148;SDS011;10732;51.472;6.466;2022-09-12T05:51:00;40.45;;;27.15;;
21148;SDS011;10732;51.472;6.466;2022-09-12T05:53:33;41.38;;;26.15;;
21148;SDS011;10732;51.472;6.466;2022-09-12T05:58:36;37.00;;;26.98;;
21148;SDS011;10732;51.472;6.466;2022-09-12T06:01:11;38.92;;;26.27;;
21148;SDS011;10732;51.472;6.466;2022-09-12T06:03:42;38.05;;;25.20;;
21148;SDS011;10732;51.472;6.466;2022-09-12T06:06:10;34.25;;;25.63;;
21148;SDS011;10732;51.472;6.466;2022-09-12T06:08:40;40.90;;;26.90;;
21148;SDS011;10732;51.472;6.466;2022-09-12T06:11:08;34.20;;;25.05;;
21148;SDS011;10732;51.472;6.466;2022-09-12T06:13:36;40.78;;;25.15;;
21148;SDS011;10732;51.472;6.466;2022-09-12T06:16:14;38.13;;;23.90;;
21148;SDS011;10732;51.472;6.466;2022-09-12T06:18:45;36.42;;;24.90;;
21148;SDS011;10732;51.472;6.466;2022-09-12T06:21:22;34.05;;;23.55;;
21148;SDS011;10732;51.472;6.466;2022-09-12T06:23:48;32.63;;;23.75;;
21148;SDS011;10732;51.472;6.466;2022-09-12T06:26:15;36.42;;;22.83;;
21148;SDS011;10732;51.472;6.466;2022-09-12T06:28:42;30.02;;;21.73;;
21148;SDS011;10732;51.472;6.466;2022-09-12T06:31:10;32.92;;;23.48;;
21148;SDS011;10732;51.472;6.466;2022-09-12T06:33:38;33.08;;;24.23;;
21148;SDS011;10732;51.472;6.466;2022-09-12T06:36:06;30.70;;;22.88;;
21148;SDS011;10732;51.472;6.466;2022-09-12T06:38:34;33.17;;;23.05;;
21148;SDS011;10732;51.472;6.466;2022-09-12T06:41:02;33.83;;;22.88;;
21148;SDS011;10732;51.472;6.466;2022-09-12T06:43:28;32.90;;;23.05;;
21148;SDS011;10732;51.472;6.466;2022-09-12T06:45:54;36.35;;;23.73;;
21148;SDS011;10732;51.472;6.466;2022-09-12T06:48:20;32.55;;;23.85;;
21148;SDS011;10732;51.472;6.466;2022-09-12T06:50:56;32.55;;;24.05;;
21148;SDS011;10732;51.472;6.466;2022-09-12T06:53:22;35.40;;;24.52;;
21148;SDS011;10732;51.472;6.466;2022-09-12T06:55:56;36.30;;;24.33;;
21148;SDS011;10732;51.472;6.466;2022-09-12T06:58:22;38.47;;;23.92;;
21148;SDS011;10732;51.472;6.466;2022-09-12T07:00:48;37.60;;;24.10;;
21148;SDS011;10732;51.472;6.466;2022-09-12T07:03:13;33.38;;;23.55;;
21148;SDS011;10732;51.472;6.466;2022-09-12T07:05:39;31.98;;;23.73;;
21148;SDS011;10732;51.472;6.466;2022-09-12T07:08:04;31.63;;;23.13;;
21148;SDS011;10732;51.472;6.466;2022-09-12T07:10:30;31.75;;;21.95;;
21148;SDS011;10732;51.472;6.466;2022-09-12T07:12:55;30.90;;;22.05;;
21148;SDS011;10732;51.472;6.466;2022-09-12T07:15:21;28.58;;;22.20;;
21148;SDS011;10732;51.472;6.466;2022-09-12T07:17:49;28.33;;;21.02;;
21148;SDS011;10732;51.472;6.466;2022-09-12T07:20:15;28.77;;;21.33;;
21148;SDS011;10732;51.472;6.466;2022-09-12T07:22:40;30.63;;;21.45;;
21148;SDS011;10732;51.472;6.466;2022-09-12T07:25:06;35.00;;;23.10;;
21148;SDS011;10732;51.472;6.466;2022-09-12T07:27:32;35.58;;;22.90;;
21148;SDS011;10732;51.472;6.466;2022-09-12T07:29:57;30.27;;;21.77;;
21148;SDS011;10732;51.472;6.466;2022-09-12T07:32:23;31.35;;;22.83;;
21148;SDS011;10732;51.472;6.466;2022-09-12T07:34:49;32.47;;;22.95;;
21148;SDS011;10732;51.472;6.466;2022-09-12T07:37:16;30.13;;;22.30;;
21148;SDS011;10732;51.472;6.466;2022-09-12T07:39:42;31.73;;;23.65;;
21148;SDS011;10732;51.472;6.466;2022-09-12T07:42:07;29.55;;;21.85;;
21148;SDS011;10732;51.472;6.466;2022-09-12T07:44:33;31.55;;;20.90;;
21148;SDS011;10732;51.472;6.466;2022-09-12T07:46:59;28.92;;;20.88;;
21148;SDS011;10732;51.472;6.466;2022-09-12T07:49:25;29.85;;;20.45;;
21148;SDS011;10732;51.472;6.466;2022-09-12T07:51:50;29.83;;;20.50;;
21148;SDS011;10732;51.472;6.466;2022-09-12T07:54:16;24.95;;;19.23;;
21148;SDS011;10732;51.472;6.466;2022-09-12T07:56:41;25.33;;;18.58;;
21148;SDS011;10732;51.472;6.466;2022-09-12T07:59:07;22.42;;;16.83;;
21148;SDS011;10732;51.472;6.466;2022-09-12T08:01:33;20.05;;;15.85;;
21148;SDS011;10732;51.472;6.466;2022-09-12T08:03:58;19.90;;;16.30;;
21148;SDS011;10732;51.472;6.466;2022-09-12T08:06:25;18.08;;;14.63;;
21148;SDS011;10732;51.472;6.466;2022-09-12T08:08:55;15.75;;;13.50;;
21148;SDS011;10732;51.472;6.466;2022-09-12T08:11:22;17.80;;;14.43;;
21148;SDS011;10732;51.472;6.466;2022-09-12T08:13:49;17.25;;;14.13;;
21148;SDS011;10732;51.472;6.466;2022-09-12T08:16:19;17.80;;;13.45;;
21148;SDS011;10732;51.472;6.466;2022-09-12T08:18:46;16.42;;;13.02;;
21148;SDS011;10732;51.472;6.466;2022-09-12T08:21:13;15.02;;;13.27;;
21148;SDS011;10732;51.472;6.466;2022-09-12T08:23:41;17.83;;;14.13;;
21148;SDS011;10732;51.472;6.466;2022-09-12T08:26:07;17.45;;;14.40;;
21148;SDS011;10732;51.472;6.466;2022-09-12T08:28:34;18.88;;;13.80;;
21148;SDS011;10732;51.472;6.466;2022-09-12T08:31:04;17.35;;;14.25;;
21148;SDS011;10732;51.472;6.466;2022-09-12T08:33:31;17.42;;;13.75;;
21148;SDS011;10732;51.472;6.466;2022-09-12T08:36:08;17.88;;;14.52;;
21148;SDS011;10732;51.472;6.466;2022-09-12T08:38:35;16.90;;;14.50;;
21148;SDS011;10732;51.472;6.466;2022-09-12T08:41:14;16.38;;;13.27;;
21148;SDS011;10732;51.472;6.466;2022-09-12T08:49:12;20.02;;;14.70;;
21148;SDS011;10732;51.472;6.466;2022-09-12T08:51:41;18.65;;;13.60;;
21148;SDS011;10732;51.472;6.466;2022-09-12T08:54:11;16.52;;;14.30;;
21148;SDS011;10732;51.472;6.466;2022-09-12T08:56:50;18.38;;;13.98;;
21148;SDS011;10732;51.472;6.466;2022-09-12T08:59:24;17.08;;;13.38;;
21148;SDS011;10732;51.472;6.466;2022-09-12T09:01:49;14.98;;;13.27;;
21148;SDS011;10732;51.472;6.466;2022-09-12T09:10:49;13.77;;;11.30;;
21148;SDS011;10732;51.472;6.466;2022-09-12T09:16:43;12.70;;;11.35;;
21148;SDS011;10732;51.472;6.466;2022-09-12T09:21:48;13.13;;;11.52;;
21148;SDS011;10732;51.472;6.466;2022-09-12T09:24:19;14.75;;;12.00;;
21148;SDS011;10732;51.472;6.466;2022-09-12T09:31:43;13.52;;;10.80;;
21148;SDS011;10732;51.472;6.466;2022-09-12T09:34:22;14.32;;;10.57;;
21148;SDS011;10732;51.472;6.466;2022-09-12T09:37:06;11.38;;;9.90;;
21148;SDS011;10732;51.472;6.466;2022-09-12T09:45:23;12.23;;;10.85;;
21148;SDS011;10732;51.472;6.466;2022-09-12T09:50:50;12.00;;;10.82;;
21148;SDS011;10732;51.472;6.466;2022-09-12T09:53:31;12.82;;;11.07;;
21148;SDS011;10732;51.472;6.466;2022-09-12T09:56:09;11.25;;;10.10;;
21148;SDS011;10732;51.472;6.466;2022-09-12T09:58:39;13.05;;;10.45;;
21148;SDS011;10732;51.472;6.466;2022-09-12T10:01:09;12.60;;;11.27;;
21148;SDS011;10732;51.472;6.466;2022-09-12T10:03:39;17.40;;;12.05;;
21148;SDS011;10732;51.472;6.466;2022-09-12T10:06:32;12.63;;;10.65;;
21148;SDS011;10732;51.472;6.466;2022-09-12T10:09:06;11.55;;;10.35;;
21148;SDS011;10732;51.472;6.466;2022-09-12T10:11:38;12.02;;;10.88;;
21148;SDS011;10732;51.472;6.466;2022-09-12T10:14:04;12.48;;;10.65;;
21148;SDS011;10732;51.472;6.466;2022-09-12T10:16:50;11.15;;;10.15;;
21148;SDS011;10732;51.472;6.466;2022-09-12T10:19:21;11.75;;;10.45;;
21148;SDS011;10732;51.472;6.466;2022-09-12T10:21:55;11.05;;;9.10;;
21148;SDS011;10732;51.472;6.466;2022-09-12T10:24:39;10.35;;;9.35;;
21148;SDS011;10732;51.472;6.466;2022-09-12T10:29:46;14.10;;;11.90;;
21148;SDS011;10732;51.472;6.466;2022-09-12T10:32:43;10.05;;;9.07;;
21148;SDS011;10732;51.472;6.466;2022-09-12T10:35:23;12.60;;;9.70;;
21148;SDS011;10732;51.472;6.466;2022-09-12T10:37:55;9.35;;;8.45;;
21148;SDS011;10732;51.472;6.466;2022-09-12T10:42:58;10.27;;;8.40;;
21148;SDS011;10732;51.472;6.466;2022-09-12T10:45:35;14.30;;;9.60;;
21148;SDS011;10732;51.472;6.466;2022-09-12T10:48:02;11.18;;;9.13;;
21148;SDS011;10732;51.472;6.466;2022-09-12T10:50:55;11.35;;;9.40;;
21148;SDS011;10732;51.472;6.466;2022-09-12T10:53:26;10.95;;;9.18;;
21148;SDS011;10732;51.472;6.466;2022-09-12T10:56:09;12.15;;;7.90;;
21148;SDS011;10732;51.472;6.466;2022-09-12T11:01:26;9.88;;;8.32;;
21148;SDS011;10732;51.472;6.466;2022-09-12T11:06:59;9.35;;;6.57;;
21148;SDS011;10732;51.472;6.466;2022-09-12T11:17:53;9.30;;;8.23;;
21148;SDS011;10732;51.472;6.466;2022-09-12T11:26:23;8.40;;;7.38;;
21148;SDS011;10732;51.472;6.466;2022-09-12T11:39:53;6.25;;;5.00;;
21148;SDS011;10732;51.472;6.466;2022-09-12T11:42:26;6.55;;;4.88;;
21148;SDS011;10732;51.472;6.466;2022-09-12T11:45:18;5.95;;;5.10;;
21148;SDS011;10732;51.472;6.466;2022-09-12T11:47:51;6.20;;;4.78;;
21148;SDS011;10732;51.472;6.466;2022-09-12T11:50:26;6.43;;;4.55;;
21148;SDS011;10732;51.472;6.466;2022-09-12T11:52:54;7.53;;;4.20;;
21148;SDS011;10732;51.472;6.466;2022-09-12T11:55:28;5.70;;;4.80;;
21148;SDS011;10732;51.472;6.466;2022-09-12T11:58:01;6.75;;;4.20;;
21148;SDS011;10732;51.472;6.466;2022-09-12T12:08:03;7.07;;;4.20;;
21148;SDS011;10732;51.472;6.466;2022-09-12T12:10:37;8.10;;;4.65;;
21148;SDS011;10732;51.472;6.466;2022-09-12T12:15:56;4.45;;;4.00;;
21148;SDS011;10732;51.472;6.466;2022-09-12T12:18:24;5.25;;;4.13;;
21148;SDS011;10732;51.472;6.466;2022-09-12T12:20:51;4.65;;;3.70;;
21148;SDS011;10732;51.472;6.466;2022-09-12T12:23:29;4.60;;;4.05;;
21148;SDS011;10732;51.472;6.466;2022-09-12T12:25:58;7.20;;;3.95;;
21148;SDS011;10732;51.472;6.466;2022-09-12T12:31:07;3.85;;;3.40;;
21148;SDS011;10732;51.472;6.466;2022-09-12T12:36:03;5.65;;;3.17;;
21148;SDS011;10732;51.472;6.466;2022-09-12T12:38:32;5.25;;;3.55;;
21148;SDS011;10732;51.472;6.466;2022-09-12T12:46:16;4.43;;;3.00;;
21148;SDS011;10732;51.472;6.466;2022-09-12T12:48:52;3.88;;;3.40;;
21148;SDS011;10732;51.472;6.466;2022-09-12T12:51:57;5.38;;;4.00;;
21148;SDS011;10732;51.472;6.466;2022-09-12T12:57:14;6.60;;;3.90;;
21148;SDS011;10732;51.472;6.466;2022-09-12T12:59:50;7.10;;;4.10;;
21148;SDS011;10732;51.472;6.466;2022-09-12T13:02:30;6.07;;;3.50;;
21148;SDS011;10732;51.472;6.466;2022-09-12T13:05:20;4.63;;;3.72;;
21148;SDS011;10732;51.472;6.466;2022-09-12T13:07:52;5.85;;;3.75;;
21148;SDS011;10732;51.472;6.466;2022-09-12T13:10:21;4.07;;;3.25;;
21148;SDS011;10732;51.472;6.466;2022-09-12T13:12:50;5.82;;;3.72;;
21148;SDS011;10732;51.472;6.466;2022-09-12T13:18:22;4.82;;;3.80;;
21148;SDS011;10732;51.472;6.466;2022-09-12T13:23:38;5.20;;;4.68;;
21148;SDS011;10732;51.472;6.466;2022-09-12T13:26:11;7.80;;;4.45;;
21148;SDS011;10732;51.472;6.466;2022-09-12T13:28:44;4.70;;;4.03;;
21148;SDS011;10732;51.472;6.466;2022-09-12T13:33:56;4.60;;;3.90;;
21148;SDS011;10732;51.472;6.466;2022-09-12T13:36:50;5.30;;;4.30;;
21148;SDS011;10732;51.472;6.466;2022-09-12T13:42:48;5.45;;;4.70;;
21148;SDS011;10732;51.472;6.466;2022-09-12T13:45:31;6.93;;;5.03;;
21148;SDS011;10732;51.472;6.466;2022-09-12T13:48:01;8.30;;;4.40;;
21148;SDS011;10732;51.472;6.466;2022-09-12T13:50:29;7.45;;;4.70;;
21148;SDS011;10732;51.472;6.466;2022-09-12T13:53:21;4.68;;;3.83;;
21148;SDS011;10732;51.472;6.466;2022-09-12T13:55:54;6.40;;;4.78;;
21148;SDS011;10732;51.472;6.466;2022-09-12T13:58:24;5.97;;;4.20;;
21148;SDS011;10732;51.472;6.466;2022-09-12T14:01:04;6.15;;;4.40;;
21148;SDS011;10732;51.472;6.466;2022-09-12T14:03:37;5.63;;;3.83;;
21148;SDS011;10732;51.472;6.466;2022-09-12T14:06:26;5.95;;;3.80;;
21148;SDS011;10732;51.472;6.466;2022-09-12T14:08:52;8.48;;;4.60;;
21148;SDS011;10732;51.472;6.466;2022-09-12T14:11:25;7.40;;;4.15;;
21148;SDS011;10732;51.472;6.466;2022-09-12T14:13:52;5.07;;;4.10;;
21148;SDS011;10732;51.472;6.466;2022-09-12T14:16:19;4.78;;;4.05;;
21148;SDS011;10732;51.472;6.466;2022-09-12T14:18:47;4.55;;;3.67;;
21148;SDS011;10732;51.472;6.466;2022-09-12T14:21:19;4.03;;;3.40;;
21148;SDS011;10732;51.472;6.466;2022-09-12T14:23:54;4.90;;;3.75;;
21148;SDS011;10732;51.472;6.466;2022-09-12T14:26:21;5.75;;;3.80;;
21148;SDS011;10732;51.472;6.466;2022-09-12T14:28:48;5.50;;;4.05;;
21148;SDS011;10732;51.472;6.466;2022-09-12T14:31:24;5.45;;;3.72;;
21148;SDS011;10732;51.472;6.466;2022-09-12T14:34:14;6.15;;;3.95;;
21148;SDS011;10732;51.472;6.466;2022-09-12T14:36:45;4.70;;;3.60;;
21148;SDS011;10732;51.472;6.466;2022-09-12T14:39:28;5.45;;;4.00;;
21148;SDS011;10732;51.472;6.466;2022-09-12T14:44:48;5.55;;;4.18;;
21148;SDS011;10732;51.472;6.466;2022-09-12T14:47:21;4.40;;;4.00;;
21148;SDS011;10732;51.472;6.466;2022-09-12T14:49:49;6.80;;;4.00;;
21148;SDS011;10732;51.472;6.466;2022-09-12T14:55:01;5.32;;;3.58;;
21148;SDS011;10732;51.472;6.466;2022-09-12T14:57:43;5.65;;;4.85;;
21148;SDS011;10732;51.472;6.466;2022-09-12T15:02:39;5.65;;;4.57;;
21148;SDS011;10732;51.472;6.466;2022-09-12T15:07:32;4.95;;;3.40;;
21148;SDS011;10732;51.472;6.466;2022-09-12T15:10:42;3.67;;;3.10;;
21148;SDS011;10732;51.472;6.466;2022-09-12T15:15:38;9.15;;;3.53;;
21148;SDS011;10732;51.472;6.466;2022-09-12T15:18:05;5.13;;;3.40;;
21148;SDS011;10732;51.472;6.466;2022-09-12T15:20:32;8.82;;;6.55;;
21148;SDS011;10732;51.472;6.466;2022-09-12T15:23:00;6.45;;;5.13;;
21148;SDS011;10732;51.472;6.466;2022-09-12T15:25:25;5.22;;;4.10;;
21148;SDS011;10732;51.472;6.466;2022-09-12T15:27:51;8.07;;;5.70;;
21148;SDS011;10732;51.472;6.466;2022-09-12T15:30:17;4.95;;;3.70;;
21148;SDS011;10732;51.472;6.466;2022-09-12T15:32:43;5.03;;;3.65;;
21148;SDS011;10732;51.472;6.466;2022-09-12T15:35:14;5.03;;;3.83;;
21148;SDS011;10732;51.472;6.466;2022-09-12T15:37:42;6.65;;;3.70;;
21148;SDS011;10732;51.472;6.466;2022-09-12T15:40:08;4.28;;;3.50;;
21148;SDS011;10732;51.472;6.466;2022-09-12T15:42:35;6.82;;;3.53;;
21148;SDS011;10732;51.472;6.466;2022-09-12T15:45:01;5.18;;;3.90;;
21148;SDS011;10732;51.472;6.466;2022-09-12T15:47:28;11.20;;;8.90;;
21148;SDS011;10732;51.472;6.466;2022-09-12T15:49:54;4.55;;;4.05;;
21148;SDS011;10732;51.472;6.466;2022-09-12T15:52:19;5.35;;;3.63;;
21148;SDS011;10732;51.472;6.466;2022-09-12T15:54:45;5.68;;;3.83;;
21148;SDS011;10732;51.472;6.466;2022-09-12T15:57:10;3.50;;;3.20;;
21148;SDS011;10732;51.472;6.466;2022-09-12T15:59:36;4.45;;;3.58;;
21148;SDS011;10732;51.472;6.466;2022-09-12T16:02:01;4.38;;;3.60;;
21148;SDS011;10732;51.472;6.466;2022-09-12T16:04:28;4.07;;;3.42;;
21148;SDS011;10732;51.472;6.466;2022-09-12T16:06:55;3.72;;;3.33;;
21148;SDS011;10732;51.472;6.466;2022-09-12T16:09:21;6.70;;;3.38;;
21148;SDS011;10732;51.472;6.466;2022-09-12T16:11:47;4.10;;;3.70;;
21148;SDS011;10732;51.472;6.466;2022-09-12T16:14:13;7.70;;;3.55;;
21148;SDS011;10732;51.472;6.466;2022-09-12T16:16:40;4.43;;;3.80;;
21148;SDS011;10732;51.472;6.466;2022-09-12T16:19:07;4.57;;;3.55;;
21148;SDS011;10732;51.472;6.466;2022-09-12T16:21:34;4.47;;;3.60;;
21148;SDS011;10732;51.472;6.466;2022-09-12T16:24:00;7.10;;;4.10;;
21148;SDS011;10732;51.472;6.466;2022-09-12T16:26:26;4.60;;;3.70;;
21148;SDS011;10732;51.472;6.466;2022-09-12T16:28:55;5.43;;;3.83;;
21148;SDS011;10732;51.472;6.466;2022-09-12T16:31:21;3.58;;;3.28;;
21148;SDS011;10732;51.472;6.466;2022-09-12T16:33:47;5.80;;;3.90;;
21148;SDS011;10732;51.472;6.466;2022-09-12T16:36:13;8.63;;;3.30;;
21148;SDS011;10732;51.472;6.466;2022-09-12T16:38:40;4.20;;;3.00;;
21148;SDS011;10732;51.472;6.466;2022-09-12T16:41:07;4.05;;;3.33;;
21148;SDS011;10732;51.472;6.466;2022-09-12T16:43:34;4.90;;;3.10;;
21148;SDS011;10732;51.472;6.466;2022-09-12T16:46:00;3.53;;;3.22;;
21148;SDS011;10732;51.472;6.466;2022-09-12T16:48:28;6.55;;;3.22;;
21148;SDS011;10732;51.472;6.466;2022-09-12T16:50:54;7.75;;;3.50;;
21148;SDS011;10732;51.472;6.466;2022-09-12T16:53:21;4.40;;;3.28;;
21148;SDS011;10732;51.472;6.466;2022-09-12T16:55:47;5.38;;;3.08;;
21148;SDS011;10732;51.472;6.466;2022-09-12T16:58:13;4.47;;;3.10;;
21148;SDS011;10732;51.472;6.466;2022-09-12T17:00:38;4.85;;;3.42;;
21148;SDS011;10732;51.472;6.466;2022-09-12T17:03:04;5.72;;;3.47;;
21148;SDS011;10732;51.472;6.466;2022-09-12T17:05:29;3.67;;;3.28;;
21148;SDS011;10732;51.472;6.466;2022-09-12T17:07:55;5.65;;;3.20;;
21148;SDS011;10732;51.472;6.466;2022-09-12T17:10:20;4.05;;;3.10;;
21148;SDS011;10732;51.472;6.466;2022-09-12T17:12:46;6.65;;;2.85;;
21148;SDS011;10732;51.472;6.466;2022-09-12T17:15:12;6.40;;;3.47;;
21148;SDS011;10732;51.472;6.466;2022-09-12T17:17:38;5.20;;;3.35;;